Time;durP1;ratioP1;P1;durP2;ratioP2;P2;SDS_P1;SDS_P2;PMS_P1;PMS_P2;Temp;Humidity;BMP_temperature;BMP_pressure;BME280_temperature;BME280_humidity;BME280_pressure;Samples;Min_cycle;Max_cycle;Signal;HPM_P1;HPM_P2
2023/04/28 00:00:55;;;;;;;2.33;1.10;;;8.90;99.90;;;;;;5008935;28;20107;-86
2023/04/28 00:03:21;;;;;;;2.95;1.13;;;8.90;99.90;;;;;;4996941;28;20065;-86
2023/04/28 00:05:48;;;;;;;1.92;1.15;;;8.80;99.90;;;;;;5012521;28;20029;-86
2023/04/28 00:08:14;;;;;;;2.13;0.80;;;8.80;99.90;;;;;;5012934;28;20088;-86
2023/04/28 00:10:40;;;;;;;2.83;0.77;;;8.80;99.90;;;;;;5004386;28;20113;-86
2023/04/28 00:13:05;;;;;;;2.80;1.33;;;8.90;99.90;;;;;;4997059;28;20443;-86
2023/04/28 00:15:31;;;;;;;3.05;1.25;;;8.80;99.90;;;;;;4997642;28;20113;-86
2023/04/28 00:17:57;;;;;;;2.17;1.10;;;8.80;99.90;;;;;;5013908;28;20601;-86
2023/04/28 00:20:22;;;;;;;2.50;1.00;;;8.80;99.90;;;;;;5014904;28;20471;-86
2023/04/28 00:22:49;;;;;;;2.90;0.68;;;8.80;99.90;;;;;;4997552;28;20033;-86
2023/04/28 00:25:15;;;;;;;1.85;0.60;;;8.80;99.90;;;;;;5014955;28;20029;-86
2023/04/28 00:27:40;;;;;;;1.70;0.57;;;8.80;99.90;;;;;;5013223;28;20037;-86
2023/04/28 00:30:07;;;;;;;1.70;0.70;;;8.80;99.90;;;;;;5012987;28;20041;-86
2023/04/28 00:32:32;;;;;;;1.70;0.70;;;8.70;99.90;;;;;;4994509;28;20502;-86
2023/04/28 00:34:58;;;;;;;2.40;0.70;;;8.70;99.90;;;;;;4997184;28;20113;-86
2023/04/28 00:37:24;;;;;;;1.40;0.60;;;8.70;99.90;;;;;;5011574;28;20033;-86
2023/04/28 00:39:56;;;;;;;1.95;0.65;;;8.70;99.90;;;;;;4994550;28;20049;-86
2023/04/28 00:42:22;;;;;;;1.50;0.70;;;8.70;99.90;;;;;;5009039;28;20474;-86
2023/04/28 00:44:48;;;;;;;2.60;0.70;;;8.70;99.90;;;;;;5011755;28;20057;-86
2023/04/28 00:47:17;;;;;;;3.25;0.85;;;8.70;99.90;;;;;;5008976;28;20085;-86
2023/04/28 00:49:42;;;;;;;2.92;0.80;;;8.60;99.90;;;;;;5012909;28;20030;-86
2023/04/28 00:52:09;;;;;;;1.65;0.63;;;8.60;99.90;;;;;;4995511;28;20044;-85
2023/04/28 00:54:35;;;;;;;1.50;0.50;;;8.70;99.90;;;;;;4995502;28;20032;-86
2023/04/28 00:57:01;;;;;;;1.85;0.55;;;8.70;99.90;;;;;;4992322;28;20034;-86
2023/04/28 00:59:29;;;;;;;3.63;0.60;;;8.70;99.90;;;;;;4995260;28;20041;-85
2023/04/28 01:01:55;;;;;;;2.35;0.70;;;8.60;99.90;;;;;;5012467;28;20049;-85
2023/04/28 01:04:22;;;;;;;1.80;0.60;;;8.60;99.90;;;;;;4996042;28;20435;-85
2023/04/28 01:06:50;;;;;;;1.83;0.75;;;8.70;99.90;;;;;;5012032;28;20391;-85
2023/04/28 01:09:16;;;;;;;1.92;0.60;;;8.70;99.90;;;;;;4994467;28;20027;-86
2023/04/28 01:11:41;;;;;;;1.58;0.90;;;8.70;99.90;;;;;;4994993;28;20080;-86
2023/04/28 01:14:09;;;;;;;3.65;1.33;;;8.60;99.90;;;;;;4995383;28;20069;-85
2023/04/28 01:16:38;;;;;;;2.42;0.82;;;8.70;99.90;;;;;;4994703;28;20029;-85
2023/04/28 01:19:06;;;;;;;1.42;0.47;;;8.60;99.90;;;;;;5012881;28;20029;-86
2023/04/28 01:21:33;;;;;;;2.25;0.70;;;8.60;99.90;;;;;;5012575;28;20022;-85
2023/04/28 01:24:07;;;;;;;2.25;0.60;;;8.60;99.90;;;;;;5013160;28;20068;-85
2023/04/28 01:26:33;;;;;;;2.22;0.60;;;8.60;99.90;;;;;;4992873;28;20555;-86
2023/04/28 01:29:00;;;;;;;1.42;0.50;;;8.60;99.90;;;;;;5012099;28;20406;-85
2023/04/28 01:31:26;;;;;;;3.25;0.52;;;8.60;99.90;;;;;;4996398;28;20072;-86
2023/04/28 01:33:52;;;;;;;1.60;0.60;;;8.60;99.90;;;;;;5013668;28;20058;-86
2023/04/28 01:36:17;;;;;;;2.08;0.70;;;8.60;99.90;;;;;;5012746;28;20030;-86
2023/04/28 01:38:43;;;;;;;1.95;0.70;;;8.60;99.90;;;;;;5012039;28;20129;-86
2023/04/28 01:41:09;;;;;;;2.03;0.68;;;8.60;99.90;;;;;;4995593;28;20029;-86
2023/04/28 01:43:34;;;;;;;1.58;0.50;;;8.60;99.90;;;;;;4995567;28;20041;-86
2023/04/28 01:46:00;;;;;;;1.88;0.77;;;8.50;99.90;;;;;;4996351;28;20050;-86
2023/04/28 01:48:26;;;;;;;4.43;0.60;;;8.40;99.90;;;;;;5012318;28;20040;-86
2023/04/28 01:50:51;;;;;;;2.10;0.60;;;8.40;99.90;;;;;;4995291;28;20025;-86
2023/04/28 01:53:19;;;;;;;1.70;0.60;;;8.30;99.90;;;;;;5012265;28;20049;-86
2023/04/28 01:55:46;;;;;;;2.38;0.60;;;8.30;99.90;;;;;;4996636;28;20062;-87
2023/04/28 01:58:12;;;;;;;2.05;0.63;;;8.30;99.90;;;;;;4995660;28;20050;-87
2023/04/28 02:00:38;;;;;;;2.40;0.70;;;8.30;99.90;;;;;;4995723;28;20125;-87
2023/04/28 02:03:04;;;;;;;1.70;0.60;;;8.30;99.90;;;;;;5012206;28;20037;-86
2023/04/28 02:05:30;;;;;;;2.95;0.60;;;8.20;99.90;;;;;;4995054;28;20491;-87
2023/04/28 02:07:56;;;;;;;2.35;0.70;;;8.30;99.90;;;;;;5017397;28;20034;-86
2023/04/28 02:10:22;;;;;;;1.27;0.50;;;8.20;99.90;;;;;;5011596;28;20033;-86
2023/04/28 02:12:47;;;;;;;1.77;0.60;;;8.20;99.90;;;;;;5009384;28;20093;-86
2023/04/28 02:15:14;;;;;;;1.42;0.50;;;8.20;99.90;;;;;;5026165;28;20026;-86
2023/04/28 02:17:40;;;;;;;1.70;0.50;;;8.20;99.90;;;;;;4992079;28;20037;-87
2023/04/28 02:20:06;;;;;;;2.25;0.77;;;8.20;99.90;;;;;;4993996;28;20159;-86
2023/04/28 02:22:32;;;;;;;2.58;0.60;;;8.20;99.90;;;;;;5003876;28;20027;-86
2023/04/28 02:24:58;;;;;;;1.48;0.50;;;8.10;99.90;;;;;;4994106;28;20030;-85
2023/04/28 02:27:23;;;;;;;1.70;0.52;;;8.10;99.90;;;;;;4992228;28;20489;-86
2023/04/28 02:29:49;;;;;;;2.03;0.70;;;8.20;99.90;;;;;;4991638;28;20038;-86
2023/04/28 02:32:15;;;;;;;1.63;0.50;;;8.10;99.90;;;;;;4990586;28;20068;-86
2023/04/28 02:34:41;;;;;;;1.48;0.40;;;8.10;99.90;;;;;;4990654;28;20034;-86
2023/04/28 02:37:07;;;;;;;1.55;0.52;;;8.10;99.90;;;;;;5008465;28;20084;-86
2023/04/28 02:39:32;;;;;;;1.75;0.57;;;8.20;99.90;;;;;;4993828;28;20177;-86
2023/04/28 02:41:58;;;;;;;2.05;0.43;;;8.10;99.90;;;;;;5011836;28;20026;-86
2023/04/28 02:44:24;;;;;;;1.35;0.60;;;8.10;99.90;;;;;;5012269;28;20469;-86
2023/04/28 02:46:50;;;;;;;1.95;0.70;;;8.10;99.90;;;;;;4992271;28;20026;-86
2023/04/28 02:49:15;;;;;;;1.90;0.70;;;8.10;99.90;;;;;;5011127;28;20033;-86
2023/04/28 02:51:42;;;;;;;2.17;0.50;;;8.10;99.90;;;;;;5009434;28;20088;-85
2023/04/28 02:54:07;;;;;;;1.30;0.50;;;8.10;99.90;;;;;;4990355;28;20021;-86
2023/04/28 02:56:34;;;;;;;1.88;0.60;;;8.00;99.90;;;;;;5010908;28;20544;-87
2023/04/28 02:59:00;;;;;;;1.23;0.50;;;8.10;99.90;;;;;;5008702;28;20041;-86
2023/04/28 03:01:26;;;;;;;1.75;0.65;;;8.10;99.90;;;;;;4994527;28;20549;-87
2023/04/28 03:03:52;;;;;;;1.70;0.60;;;8.10;99.90;;;;;;5010286;28;20467;-86
2023/04/28 03:06:17;;;;;;;2.70;0.80;;;8.10;99.90;;;;;;5012228;28;20057;-86
2023/04/28 03:08:43;;;;;;;2.08;0.50;;;8.10;99.90;;;;;;4994101;28;20025;-87
2023/04/28 03:11:09;;;;;;;2.97;0.90;;;8.10;99.90;;;;;;5009512;28;20025;-86
2023/04/28 03:13:36;;;;;;;3.90;0.77;;;8.10;99.90;;;;;;4992117;28;20121;-86
2023/04/28 03:16:02;;;;;;;2.45;1.00;;;8.10;99.90;;;;;;4993254;28;20433;-86
2023/04/28 03:18:28;;;;;;;1.80;0.80;;;8.00;99.90;;;;;;4993652;28;20038;-86
2023/04/28 03:20:54;;;;;;;3.22;0.70;;;8.10;99.90;;;;;;4990639;28;20026;-86
2023/04/28 03:23:20;;;;;;;1.52;0.60;;;8.10;99.90;;;;;;4994427;28;20029;-85
2023/04/28 03:25:46;;;;;;;2.20;0.70;;;8.10;99.90;;;;;;5011121;28;20100;-85
2023/04/28 03:28:11;;;;;;;2.92;0.70;;;8.10;99.90;;;;;;5005787;28;20108;-85
2023/04/28 03:30:38;;;;;;;1.73;0.70;;;8.10;99.90;;;;;;5008385;28;20033;-84
2023/04/28 03:33:04;;;;;;;3.30;0.77;;;8.10;99.90;;;;;;4987145;28;20388;-86
2023/04/28 03:35:30;;;;;;;2.45;0.98;;;8.10;99.90;;;;;;4992697;28;20030;-86
2023/04/28 03:37:55;;;;;;;2.15;0.75;;;8.00;99.90;;;;;;5010290;28;20450;-86
2023/04/28 03:40:21;;;;;;;2.63;0.93;;;8.00;99.90;;;;;;5009158;28;20065;-86
2023/04/28 03:43:04;;;;;;;2.53;0.82;;;8.10;99.90;;;;;;4993385;28;20037;-86
2023/04/28 03:45:34;;;;;;;1.70;0.80;;;8.10;99.90;;;;;;4999699;28;20041;-85
2023/04/28 03:48:00;;;;;;;4.78;0.80;;;8.10;99.90;;;;;;4990001;28;20038;-86
2023/04/28 03:50:25;;;;;;;2.47;0.80;;;8.10;99.90;;;;;;5009331;28;20033;-86
2023/04/28 03:52:51;;;;;;;2.00;0.80;;;8.10;99.90;;;;;;5009717;28;20076;-86
2023/04/28 03:55:17;;;;;;;2.03;0.85;;;8.10;99.90;;;;;;4993219;28;20049;-86
2023/04/28 03:57:42;;;;;;;2.75;1.05;;;8.10;99.90;;;;;;5010521;28;20042;-85
2023/04/28 04:00:09;;;;;;;2.08;0.85;;;8.10;99.90;;;;;;5009760;28;20064;-86
2023/04/28 04:02:41;;;;;;;1.88;0.70;;;8.10;99.90;;;;;;5010319;28;20038;-86
2023/04/28 04:05:07;;;;;;;2.67;0.70;;;8.10;99.90;;;;;;4993700;28;20025;-86
2023/04/28 04:07:32;;;;;;;2.83;0.93;;;8.20;99.90;;;;;;4996583;28;20096;-86
2023/04/28 04:09:58;;;;;;;1.98;0.73;;;8.20;99.90;;;;;;5010211;28;20363;-86
2023/04/28 04:12:24;;;;;;;3.63;0.82;;;8.20;99.90;;;;;;4997991;28;20033;-86
2023/04/28 04:14:49;;;;;;;2.25;1.00;;;8.20;99.90;;;;;;5010233;28;20474;-86
2023/04/28 04:17:15;;;;;;;2.22;1.05;;;8.20;99.90;;;;;;5009245;28;20064;-84
2023/04/28 04:19:42;;;;;;;2.97;1.00;;;8.20;99.90;;;;;;4990311;28;20041;-85
2023/04/28 04:22:09;;;;;;;4.50;1.20;;;8.20;99.90;;;;;;4998266;28;20089;-86
2023/04/28 04:24:35;;;;;;;3.80;1.35;;;8.20;99.90;;;;;;5008793;28;20026;-86
2023/04/28 04:27:00;;;;;;;2.72;1.20;;;8.20;99.90;;;;;;4993711;28;20450;-86
2023/04/28 04:29:31;;;;;;;2.53;0.90;;;8.20;99.90;;;;;;5006873;28;20030;-85
2023/04/28 04:31:59;;;;;;;3.55;1.10;;;8.30;99.90;;;;;;4987519;28;20022;-85
2023/04/28 04:34:25;;;;;;;3.83;0.93;;;8.30;99.90;;;;;;5009562;28;20037;-85
2023/04/28 04:36:50;;;;;;;2.30;1.27;;;8.30;99.90;;;;;;4993635;28;20434;-86
2023/04/28 04:39:16;;;;;;;3.72;1.38;;;8.30;99.90;;;;;;5013655;28;20056;-86
2023/04/28 04:41:42;;;;;;;3.40;0.95;;;8.30;99.90;;;;;;5001452;28;20474;-86
2023/04/28 04:44:26;;;;;;;2.50;1.20;;;8.30;99.90;;;;;;5011076;28;20056;-86
2023/04/28 04:46:52;;;;;;;3.88;1.40;;;8.40;99.90;;;;;;5014043;28;20026;-86
2023/04/28 04:49:19;;;;;;;3.42;1.42;;;8.40;99.90;;;;;;5013238;28;20025;-86
2023/04/28 04:51:45;;;;;;;3.00;1.20;;;8.40;99.90;;;;;;5010314;28;20467;-86
2023/04/28 04:54:11;;;;;;;2.50;1.38;;;8.50;99.90;;;;;;5012921;28;20026;-85
2023/04/28 04:56:38;;;;;;;2.78;1.25;;;8.50;99.90;;;;;;5013491;28;20049;-86
2023/04/28 04:59:05;;;;;;;4.22;1.73;;;8.50;99.90;;;;;;5013280;28;20501;-86
2023/04/28 05:01:58;;;;;;;2.65;1.63;;;8.60;99.90;;;;;;4999980;28;20032;-86
2023/04/28 05:04:23;;;;;;;3.00;1.50;;;8.60;99.90;;;;;;5011812;28;20026;-87
2023/04/28 05:06:49;;;;;;;3.22;1.88;;;8.60;99.90;;;;;;5012028;28;20026;-87
2023/04/28 05:09:15;;;;;;;2.95;1.95;;;8.70;99.90;;;;;;4996398;28;20022;-87
2023/04/28 05:11:41;;;;;;;6.50;2.13;;;8.70;99.90;;;;;;5003622;28;20037;-86
2023/04/28 05:14:07;;;;;;;6.45;1.92;;;8.70;99.90;;;;;;4991675;28;20136;-86
2023/04/28 05:16:33;;;;;;;3.63;1.95;;;8.70;99.90;;;;;;5018019;28;20026;-87
2023/04/28 05:19:15;;;;;;;3.10;1.33;;;8.80;99.90;;;;;;5012016;28;20044;-86
2023/04/28 05:21:41;;;;;;;3.85;2.28;;;8.80;99.90;;;;;;5000046;28;20021;-86
2023/04/28 05:24:06;;;;;;;3.05;2.08;;;8.80;99.90;;;;;;4995629;28;20029;-86
2023/04/28 05:26:32;;;;;;;4.03;2.25;;;8.80;99.90;;;;;;5003571;28;20029;-86
2023/04/28 05:29:04;;;;;;;3.28;2.15;;;8.80;99.90;;;;;;5013101;28;20030;-86
2023/04/28 05:31:30;;;;;;;4.35;2.88;;;8.80;99.90;;;;;;5006607;28;20026;-87
2023/04/28 05:33:55;;;;;;;4.22;2.28;;;8.90;99.90;;;;;;5010683;28;20041;-86
2023/04/28 05:36:21;;;;;;;3.83;2.75;;;8.90;99.90;;;;;;4992892;28;20028;-86
2023/04/28 05:38:47;;;;;;;4.20;2.65;;;8.90;99.90;;;;;;5009060;28;20038;-87
2023/04/28 05:41:13;;;;;;;5.32;2.22;;;9.00;99.90;;;;;;4990717;28;20026;-86
2023/04/28 05:43:40;;;;;;;4.22;1.85;;;9.00;99.90;;;;;;4992755;28;20061;-86
2023/04/28 05:46:05;;;;;;;3.78;2.28;;;9.10;99.90;;;;;;5007091;28;20103;-86
2023/04/28 05:48:31;;;;;;;4.03;2.17;;;9.10;99.90;;;;;;5010195;28;20034;-87
2023/04/28 05:50:57;;;;;;;5.15;2.67;;;9.20;99.90;;;;;;5009030;28;20487;-87
2023/04/28 05:53:22;;;;;;;4.30;2.38;;;9.20;99.90;;;;;;5011771;28;20121;-87
2023/04/28 05:55:49;;;;;;;4.28;2.28;;;9.30;99.90;;;;;;4992356;28;20065;-87
2023/04/28 05:58:24;;;;;;;5.20;2.63;;;9.30;99.90;;;;;;5013672;28;20053;-87
2023/04/28 06:00:53;;;;;;;5.57;2.72;;;9.40;99.90;;;;;;4994013;28;20026;-86
2023/04/28 06:03:19;;;;;;;4.25;2.42;;;9.40;99.90;;;;;;4992606;28;20021;-87
2023/04/28 06:05:45;;;;;;;3.78;2.40;;;9.40;99.90;;;;;;4991622;28;20031;-87
2023/04/28 06:08:13;;;;;;;4.05;2.60;;;9.50;99.90;;;;;;5010610;28;20030;-86
2023/04/28 06:10:38;;;;;;;4.00;2.60;;;9.50;99.90;;;;;;5008346;28;20022;-87
2023/04/28 06:13:05;;;;;;;3.78;2.92;;;9.50;99.90;;;;;;5007202;28;20548;-87
2023/04/28 06:15:32;;;;;;;3.67;2.15;;;9.60;99.90;;;;;;4989556;28;20076;-87
2023/04/28 06:17:58;;;;;;;4.05;2.63;;;9.50;99.90;;;;;;4992899;28;20036;-87
2023/04/28 06:20:24;;;;;;;5.03;2.40;;;9.50;99.90;;;;;;4989199;28;20141;-88
2023/04/28 06:22:50;;;;;;;3.92;2.55;;;9.50;99.90;;;;;;5009524;28;20109;-88
2023/04/28 06:25:16;;;;;;;4.15;2.40;;;9.50;99.90;;;;;;5003995;28;20022;-88
2023/04/28 06:27:44;;;;;;;4.00;2.65;;;9.50;99.90;;;;;;4992109;28;20057;-89
2023/04/28 06:30:20;;;;;;;5.05;3.05;;;9.60;99.90;;;;;;4992337;28;20145;-88
2023/04/28 06:32:46;;;;;;;5.95;3.40;;;9.60;99.90;;;;;;4988833;28;20555;-88
2023/04/28 06:35:12;;;;;;;4.90;2.95;;;9.60;99.90;;;;;;5025745;28;20124;-88
2023/04/28 06:37:37;;;;;;;4.88;3.20;;;9.60;99.90;;;;;;4992958;28;20111;-88
2023/04/28 06:40:03;;;;;;;5.00;3.33;;;9.70;99.90;;;;;;5007784;28;20030;-88
2023/04/28 06:42:29;;;;;;;6.47;3.50;;;9.70;99.90;;;;;;4992403;28;20629;-88
2023/04/28 06:45:00;;;;;;;5.93;3.08;;;9.80;99.90;;;;;;5003638;28;20053;-88
2023/04/28 06:47:26;;;;;;;5.38;3.70;;;9.80;99.90;;;;;;4991612;28;20069;-89
2023/04/28 06:49:52;;;;;;;3.85;2.40;;;9.80;99.90;;;;;;4988605;28;20026;-88
2023/04/28 06:52:20;;;;;;;5.80;3.10;;;9.80;99.90;;;;;;4990099;28;20033;-89
2023/04/28 06:54:47;;;;;;;4.88;3.22;;;9.80;99.90;;;;;;4989804;28;20351;-88
2023/04/28 06:57:13;;;;;;;5.03;2.88;;;9.80;99.90;;;;;;4992391;28;20026;-88
2023/04/28 06:59:38;;;;;;;4.40;2.60;;;9.90;99.90;;;;;;4991708;28;20034;-88
2023/04/28 07:02:04;;;;;;;4.43;2.95;;;10.00;99.90;;;;;;4992379;28;20044;-88
2023/04/28 07:04:30;;;;;;;4.05;2.50;;;10.20;99.90;;;;;;4988136;28;20033;-89
2023/04/28 07:06:56;;;;;;;4.90;3.25;;;10.20;99.90;;;;;;4992675;28;20061;-88
2023/04/28 07:09:21;;;;;;;5.88;2.80;;;10.30;99.90;;;;;;5006214;28;20080;-89
2023/04/28 07:11:47;;;;;;;6.28;3.25;;;10.50;99.90;;;;;;4992623;28;20026;-89
2023/04/28 07:14:13;;;;;;;4.70;3.28;;;10.60;99.90;;;;;;4987557;28;20161;-89
2023/04/28 07:16:38;;;;;;;3.63;1.90;;;10.70;99.90;;;;;;4992171;28;20029;-87
2023/04/28 07:19:04;;;;;;;5.85;3.65;;;10.80;99.90;;;;;;4988611;28;20030;-88
2023/04/28 07:21:30;;;;;;;5.10;3.17;;;11.00;99.90;;;;;;4991865;28;20042;-89
2023/04/28 07:23:56;;;;;;;5.25;3.35;;;11.20;99.90;;;;;;5024193;28;20457;-89
2023/04/28 07:26:24;;;;;;;3.97;2.97;;;11.40;99.90;;;;;;4989311;28;20022;-89
2023/04/28 07:28:50;;;;;;;4.53;2.50;;;11.40;99.90;;;;;;5007803;28;20045;-88
2023/04/28 07:31:16;;;;;;;4.03;2.55;;;11.50;99.90;;;;;;4990734;28;20483;-88
2023/04/28 07:33:45;;;;;;;4.80;3.00;;;11.50;99.90;;;;;;4988760;28;20063;-86
2023/04/28 07:36:11;;;;;;;5.47;2.83;;;11.50;99.90;;;;;;4965361;28;20054;-88
2023/04/28 07:38:39;;;;;;;5.90;3.10;;;11.40;99.90;;;;;;4979674;28;20053;-89
2023/04/28 07:41:07;;;;;;;4.05;2.75;;;11.40;99.90;;;;;;4996607;28;20026;-88
2023/04/28 07:43:33;;;;;;;3.90;2.53;;;11.40;99.90;;;;;;4995232;28;20043;-89
2023/04/28 07:46:02;;;;;;;4.47;2.65;;;11.30;99.90;;;;;;4980100;28;20354;-88
2023/04/28 07:48:31;;;;;;;8.15;3.78;;;11.30;99.90;;;;;;4996338;28;20041;-88
2023/04/28 07:51:02;;;;;;;3.85;2.58;;;11.30;99.90;;;;;;4981254;28;20084;-88
2023/04/28 07:53:28;;;;;;;5.07;3.22;;;11.30;99.90;;;;;;4992727;28;20061;-88
2023/04/28 07:55:54;;;;;;;4.85;2.92;;;11.20;99.90;;;;;;4977845;28;20111;-88
2023/04/28 07:58:19;;;;;;;5.03;3.88;;;11.30;99.90;;;;;;4994534;28;20052;-88
2023/04/28 08:00:45;;;;;;;5.00;3.70;;;11.40;99.90;;;;;;4978518;28;20038;-89
2023/04/28 08:03:11;;;;;;;4.22;3.30;;;11.50;99.90;;;;;;4992997;28;20092;-89
2023/04/28 08:05:51;;;;;;;5.20;2.97;;;11.60;99.90;;;;;;4988987;28;20462;-89
2023/04/28 08:08:17;;;;;;;3.67;2.55;;;11.60;99.90;;;;;;4992800;28;20030;-89
2023/04/28 08:10:42;;;;;;;4.38;3.03;;;11.60;99.90;;;;;;4983202;28;20037;-89
2023/04/28 08:13:08;;;;;;;5.90;3.83;;;11.60;99.90;;;;;;4979403;28;20521;-88
2023/04/28 08:15:36;;;;;;;4.22;3.22;;;11.60;99.90;;;;;;4982514;28;20104;-89
2023/04/28 08:18:02;;;;;;;3.95;2.83;;;11.60;99.90;;;;;;4988907;28;21625;-87
2023/04/28 08:20:29;;;;;;;4.20;2.60;;;11.70;99.90;;;;;;5003500;28;20029;-89
2023/04/28 08:22:55;;;;;;;4.80;2.55;;;11.90;99.90;;;;;;5007363;28;20034;-88
2023/04/28 08:25:21;;;;;;;4.63;3.10;;;12.10;99.90;;;;;;4987644;28;20482;-88
2023/04/28 08:27:46;;;;;;;6.63;3.10;;;12.40;99.90;;;;;;4979968;28;20045;-89
2023/04/28 08:30:12;;;;;;;4.72;2.83;;;12.50;99.90;;;;;;4980889;28;20037;-88
2023/04/28 08:32:38;;;;;;;3.67;2.42;;;12.70;99.90;;;;;;4981304;28;20379;-89
2023/04/28 08:35:04;;;;;;;4.47;3.28;;;12.60;99.90;;;;;;4998365;28;20060;-90
2023/04/28 08:37:30;;;;;;;3.95;3.15;;;12.60;99.90;;;;;;4974155;28;20148;-88
2023/04/28 08:40:08;;;;;;;5.60;2.85;;;12.60;99.90;;;;;;4996706;28;20056;-89
2023/04/28 08:42:34;;;;;;;4.30;3.03;;;12.60;99.90;;;;;;4973889;28;20053;-89
2023/04/28 08:45:03;;;;;;;4.50;2.85;;;12.70;99.90;;;;;;4994317;28;20088;-89
2023/04/28 08:47:37;;;;;;;4.50;2.83;;;12.80;99.90;;;;;;4995211;28;20522;-89
2023/04/28 08:50:04;;;;;;;4.78;3.15;;;12.90;99.90;;;;;;4979096;28;20069;-88
2023/04/28 08:52:32;;;;;;;5.32;3.33;;;12.80;99.90;;;;;;5003308;28;20775;-89
2023/04/28 08:55:00;;;;;;;3.78;2.33;;;12.80;99.90;;;;;;5005760;28;20066;-89
2023/04/28 08:57:37;;;;;;;3.33;2.17;;;12.90;99.90;;;;;;5008273;28;20025;-89
2023/04/28 09:00:04;;;;;;;5.47;2.65;;;13.00;99.90;;;;;;5006193;28;20133;-89
2023/04/28 09:02:30;;;;;;;4.15;2.80;;;12.90;99.90;;;;;;5005921;28;20041;-89
2023/04/28 09:04:56;;;;;;;5.53;2.85;;;12.90;99.90;;;;;;4990516;28;20026;-88
2023/04/28 09:07:24;;;;;;;3.08;2.00;;;13.00;99.90;;;;;;4990565;28;20045;-88
2023/04/28 09:10:17;;;;;;;6.50;3.85;;;13.00;99.90;;;;;;5003115;28;20049;-89
2023/04/28 09:12:43;;;;;;;4.90;3.40;;;13.00;99.90;;;;;;4983075;28;20044;-90
2023/04/28 09:15:09;;;;;;;3.72;2.47;;;13.00;99.90;;;;;;5006986;28;20041;-89
2023/04/28 09:17:49;;;;;;;4.32;2.78;;;12.90;99.90;;;;;;4982681;28;20036;-89
2023/04/28 09:20:27;;;;;;;3.72;2.53;;;13.00;99.90;;;;;;4982538;28;20053;-88
2023/04/28 09:22:55;;;;;;;3.95;2.75;;;13.10;99.90;;;;;;4985493;28;20025;-89
2023/04/28 09:25:22;;;;;;;3.38;2.53;;;13.10;99.90;;;;;;4988664;28;20033;-89
2023/04/28 09:27:49;;;;;;;4.00;2.47;;;13.00;99.90;;;;;;5004609;28;20116;-89
2023/04/28 09:30:15;;;;;;;5.70;3.20;;;13.20;99.90;;;;;;4987034;28;20036;-89
2023/04/28 09:32:41;;;;;;;3.13;1.85;;;13.10;99.90;;;;;;5006339;28;20029;-89
2023/04/28 09:35:07;;;;;;;3.95;2.20;;;13.20;99.90;;;;;;4981969;28;20482;-89
2023/04/28 09:37:34;;;;;;;5.00;2.17;;;13.40;99.90;;;;;;5005684;28;20076;-88
2023/04/28 09:40:06;;;;;;;2.72;1.98;;;13.50;99.90;;;;;;5005215;28;20050;-88
2023/04/28 09:42:32;;;;;;;4.40;1.85;;;13.60;99.90;;;;;;4986149;28;20328;-89
2023/04/28 09:44:58;;;;;;;3.88;2.17;;;13.70;99.90;;;;;;4967172;28;1139058;-88
2023/04/28 09:47:24;;;;;;;4.13;3.08;;;13.80;99.90;;;;;;4991262;28;20026;-90
2023/04/28 09:49:58;;;;;;;3.33;2.50;;;14.00;99.90;;;;;;5006428;28;20033;-89
2023/04/28 09:52:25;;;;;;;3.22;2.42;;;14.20;99.90;;;;;;4985235;28;20589;-89
2023/04/28 09:54:53;;;;;;;2.13;1.30;;;14.30;99.90;;;;;;4984455;28;20478;-89
2023/04/28 09:57:20;;;;;;;4.07;2.22;;;14.40;99.90;;;;;;5004999;28;20026;-89
2023/04/28 09:59:51;;;;;;;2.97;2.05;;;14.40;99.90;;;;;;4988496;28;20049;-89
2023/04/28 10:02:19;;;;;;;4.05;2.47;;;14.40;99.90;;;;;;4986661;28;20112;-87
2023/04/28 10:04:46;;;;;;;3.85;1.95;;;14.20;99.90;;;;;;4990255;28;20501;-88
2023/04/28 10:07:13;;;;;;;3.05;1.75;;;14.30;99.90;;;;;;5006922;28;20033;-88
2023/04/28 10:09:43;;;;;;;3.55;2.75;;;14.30;99.90;;;;;;4984162;28;20026;-89
2023/04/28 10:12:18;;;;;;;4.45;2.42;;;14.10;99.90;;;;;;5011415;28;20021;-89
2023/04/28 10:14:46;;;;;;;3.95;2.53;;;14.20;99.90;;;;;;5006345;28;20041;-89
2023/04/28 10:17:16;;;;;;;3.05;1.83;;;14.20;99.90;;;;;;4984076;28;20038;-89
2023/04/28 10:19:43;;;;;;;2.75;2.50;;;14.30;99.90;;;;;;4990232;28;20042;-89
2023/04/28 10:22:16;;;;;;;3.28;2.55;;;14.30;99.90;;;;;;4988338;28;20029;-89
2023/04/28 10:25:25;;;;;;;3.97;3.55;;;14.30;99.90;;;;;;5014215;28;20049;-89
2023/04/28 10:27:52;;;;;;;2.90;1.65;;;14.40;99.90;;;;;;4988695;28;20041;-89
2023/04/28 10:30:22;;;;;;;2.30;1.38;;;14.40;99.90;;;;;;4998184;28;20033;-88
2023/04/28 10:33:10;;;;;;;4.75;3.10;;;14.50;99.90;;;;;;4988636;28;20483;-89
2023/04/28 10:35:44;;;;;;;4.22;2.45;;;14.50;99.90;;;;;;5005332;28;20041;-88
2023/04/28 10:38:20;;;;;;;3.35;3.05;;;14.50;99.90;;;;;;4987526;28;20041;-89
2023/04/28 10:40:47;;;;;;;3.22;2.63;;;14.40;99.90;;;;;;4984200;28;20033;-89
2023/04/28 10:43:33;;;;;;;4.03;2.53;;;14.30;99.90;;;;;;4983550;28;20383;-90
2023/04/28 10:46:01;;;;;;;4.18;3.40;;;14.20;99.90;;;;;;5004608;28;20042;-88
2023/04/28 10:48:32;;;;;;;3.20;2.53;;;14.20;99.90;;;;;;5000678;28;20036;-88
2023/04/28 10:51:04;;;;;;;3.17;2.03;;;14.10;99.90;;;;;;4982621;28;20026;-88
2023/04/28 10:53:45;;;;;;;4.32;3.63;;;14.20;99.90;;;;;;5000194;28;20022;-88
2023/04/28 10:56:17;;;;;;;3.50;2.60;;;14.00;99.90;;;;;;5005411;28;20068;-91
2023/04/28 10:58:48;;;;;;;4.05;2.67;;;14.10;99.90;;;;;;4985526;28;20402;-90
2023/04/28 11:01:19;;;;;;;4.85;2.72;;;14.10;99.90;;;;;;5012762;28;20122;-89
2023/04/28 11:03:49;;;;;;;4.13;3.22;;;14.00;99.90;;;;;;5008937;28;20609;-88
2023/04/28 11:06:27;;;;;;;5.63;3.17;;;14.00;99.90;;;;;;4985853;28;20127;-88
2023/04/28 11:08:55;;;;;;;4.20;3.15;;;14.10;99.90;;;;;;4983961;28;20065;-88
2023/04/28 11:11:21;;;;;;;3.30;2.40;;;14.10;99.90;;;;;;4984621;28;20367;-88
2023/04/28 11:13:48;;;;;;;3.50;3.03;;;14.10;99.90;;;;;;5005418;28;20128;-89
2023/04/28 11:16:16;;;;;;;5.05;3.40;;;14.10;99.90;;;;;;5002160;28;20046;-89
2023/04/28 11:18:58;;;;;;;4.60;3.20;;;14.10;99.90;;;;;;5004076;28;20064;-90
2023/04/28 11:21:27;;;;;;;4.90;2.70;;;14.10;99.90;;;;;;4988772;28;20486;-89
2023/04/28 11:23:53;;;;;;;3.55;3.25;;;14.10;99.90;;;;;;4983423;28;20030;-89
2023/04/28 11:26:19;;;;;;;3.45;2.67;;;14.30;99.90;;;;;;4983448;28;20030;-88
2023/04/28 11:28:52;;;;;;;3.03;2.05;;;14.30;99.90;;;;;;4983668;28;20030;-89
2023/04/28 11:31:23;;;;;;;3.70;2.65;;;14.40;99.90;;;;;;5005577;28;20038;-90
2023/04/28 11:33:52;;;;;;;4.32;2.95;;;14.50;99.90;;;;;;5021850;28;20063;-90
2023/04/28 11:36:27;;;;;;;3.65;2.88;;;14.40;99.90;;;;;;5003825;28;20136;-90
2023/04/28 11:38:55;;;;;;;4.57;2.35;;;14.60;99.90;;;;;;4981913;28;20490;-89
2023/04/28 11:41:21;;;;;;;2.55;1.90;;;14.80;99.90;;;;;;5021081;28;20041;-91
2023/04/28 11:43:47;;;;;;;2.63;2.00;;;14.70;99.90;;;;;;4989926;28;20049;-90
2023/04/28 11:46:17;;;;;;;2.25;1.50;;;14.80;99.90;;;;;;4986209;28;20038;-90
2023/04/28 11:48:43;;;;;;;2.47;2.00;;;14.80;99.90;;;;;;4990473;28;20458;-88
2023/04/28 11:51:09;;;;;;;3.45;1.85;;;14.70;99.90;;;;;;4988235;28;20390;-88
2023/04/28 11:53:45;;;;;;;1.70;1.30;;;14.70;99.90;;;;;;4982347;28;20037;-89
2023/04/28 11:56:12;;;;;;;2.13;1.17;;;14.80;99.90;;;;;;5004626;28;20084;-89
2023/04/28 11:58:38;;;;;;;2.30;1.88;;;14.70;99.90;;;;;;5019229;28;20037;-90
2023/04/28 12:01:12;;;;;;;4.15;3.75;;;14.60;99.90;;;;;;4980539;28;20049;-92
2023/04/28 12:03:45;;;;;;;5.72;5.22;;;14.40;99.90;;;;;;4983238;28;20115;-91
2023/04/28 12:06:11;;;;;;;5.10;4.70;;;14.20;99.90;;;;;;4985092;28;20326;-90
2023/04/28 12:08:37;;;;;;;2.83;2.63;;;14.20;99.90;;;;;;4983090;28;20034;-90
2023/04/28 12:11:10;;;;;;;7.20;5.85;;;14.30;99.90;;;;;;4987174;28;20113;-91
2023/04/28 12:13:37;;;;;;;6.00;5.35;;;14.10;99.90;;;;;;4985091;28;20383;-89
2023/04/28 12:16:05;;;;;;;3.97;3.60;;;14.10;99.90;;;;;;4984604;28;20101;-91
2023/04/28 12:18:38;;;;;;;7.75;6.95;;;14.30;99.90;;;;;;5019047;28;20048;-89
2023/04/28 12:21:18;;;;;;;9.00;8.10;;;14.40;99.90;;;;;;4988375;28;20108;-90
2023/04/28 12:23:44;;;;;;;10.02;9.02;;;14.30;99.90;;;;;;4982896;28;20045;-90
2023/04/28 12:26:10;;;;;;;7.93;7.13;;;14.30;99.90;;;;;;4988375;28;20030;-91
2023/04/28 12:28:40;;;;;;;10.65;9.55;;;14.20;99.90;;;;;;5001038;28;20494;-91
2023/04/28 12:31:07;;;;;;;9.85;8.85;;;14.00;99.90;;;;;;4987701;28;20049;-88
2023/04/28 12:33:36;;;;;;;14.80;13.20;;;13.90;99.90;;;;;;5003763;28;20033;-91
2023/04/28 12:36:03;;;;;;;14.35;12.85;;;13.90;99.90;;;;;;4985191;28;20036;-90
2023/04/28 12:38:29;;;;;;;11.07;9.77;;;13.80;99.90;;;;;;5004790;28;20098;-89
2023/04/28 12:40:55;;;;;;;10.18;8.95;;;13.90;99.90;;;;;;5002923;28;20037;-89
2023/04/28 12:43:23;;;;;;;12.95;11.63;;;13.80;99.90;;;;;;5004013;28;20129;-89
2023/04/28 12:45:53;;;;;;;11.70;9.63;;;13.70;99.90;;;;;;5004241;28;20041;-90
2023/04/28 12:48:20;;;;;;;12.52;11.23;;;13.80;99.90;;;;;;5001300;28;20034;-89
2023/04/28 12:50:46;;;;;;;18.95;14.90;;;13.80;99.90;;;;;;4990948;28;20064;-90
2023/04/28 12:53:11;;;;;;;14.15;12.07;;;13.70;99.90;;;;;;4983291;28;20117;-91
2023/04/28 12:55:40;;;;;;;15.50;12.68;;;13.70;99.90;;;;;;4983488;28;20030;-90